Pagrindinis puslapis
METAR-TAF:

METAR-TAF

Oro uostai :

Basra, Irakas

platuma: 30-32-56N, ilguma: 47-39-45E, Aukštis: 1 m

Dabartinis oras

Ataskaita buvo paskelbta 12 minutes, ne 05:00 UTC
Vėjas 8 kt iš Vakarų/Pietvakarių
Temperatūra 20°C
Drėgmė 32%
Slėgis 1017 hPa
Matomumas 10 km arba daugiau
nėra debesų žemiau 1500 m ir nėra kamuolinių lietaus debesų

METAR: ORMM 290500Z 24008KT CAVOK 20/03 Q1017 NOSIG

Laikas: 08:12 (05:12 UTC)

Prognozė

Ataskaita buvo paskelbta 7 valandos ir 12 minutes, ne 22:00 UTC
Prognozė galioja nuo 29 metu 00 UTC su 29 metu 24 UTC
Vėjas 6 kt iš Vakarų/Pietvakarių
Matomumas: 8000 m

TAF: ORMM 282200Z 2900/2924 24006KT 8000 NSC

Orai ataskaitas ir orų prognozės (METAR, TAF).

turimą stotys yra geltonos ir raudonos taškus žemėlapyje.

Perkelti pele per norėdami pamatyti stoties vardą.

Tada spustelėkite, norėdami matyti oro stebėjimo ir prognozės.

Norėdami pakeisti žemėlapį: spustelėkite ant žalios mygtukų su juodo kryžiaus žemyn,; žalią mygtuką su brūkšneliu, jei norite nutolinti; arba žalių rodyklių gretimoms žemėlapius.


METAR-TAF: